Terminal Aerodrome Forecast
Issued by NWS Corpus Christi, TX

Home | Current Version | Previous Version | Text Only | Print | Product List | Glossary On
Versions: 1 2 3 4 5 6 7 8 9 10 11 12 13 14 15 16 17 18 19 20
000
FTUS44 KCRP 021723
TAFVCT
TAF
KVCT 021723Z 0218/0318 15016G22KT P6SM SCT020 SCT250
     FM030200 14007KT P6SM SCT012
     FM030800 14005KT P6SM BKN012
     FM031500 16010KT P6SM BKN025=

USA.gov is the U.S. government's official web portal to all federal, state and local government web resources and services.